Columbia Sportswear Co (COLM) Latest Bloomsberg Price


Mffais Ranking #245 Overall / #2 Industry
Industry: Apparel Footwear And Acc Design

Number of Companies: 141 (Ranking #1234 Overall/#14 Industry)
Inflow: $ 126,053 (K) (Ranking #829 Overall/#11 Industry)
Outflow: $ -88,789 (K)
Mffais Flow: $ 37,263 (K) (Ranking #245 Overall/#2 Industry)


Receive a FREE weekly executive review of stocks moving into the top 10, taking the top industy spot or moving up within their industry. Sent directly to your Inbox every Saturday. Sign up today and get last week's review immediately sent to you.

We value and respect your privacy. Please read our Terms and Conditions which states our firm commitment to your privacy. Your email address will not be shared with a third party, nor will it be sold or used for purposes other than subscription for the weekly review.

Owner CPOR Shares Action Qty Chg Invested (K) Total Current Value (K)
Atlanta Capital Management Co L L C 2016-09-30 3,973,085 Added More 658,207 $ 39,828 $ 240,411
Deprince Race Zollo Inc 2016-09-30 525,393 New Holding 525,393 $ 31,791 $ 31,791
Emerald Acquisition Ltd 2016-09-30 244,105 Added More 210,440 $ 12,733 $ 14,770
Westwood Holdings Group Inc 2016-09-30 160,088 New Holding 160,088 $ 9,686 $ 9,686
J Goldman Co Lp 2016-09-30 89,650 New Holding 89,650 $ 5,424 $ 5,424
Kornitzer Capital Management Inc Ks 2016-09-30 284,038 Added More 87,206 $ 5,276 $ 17,187
Glg Partners Lp 2016-09-30 61,913 New Holding 61,913 $ 3,746 $ 3,746
Comerica Bank 2016-09-30 43,041 New Holding 43,041 $ 2,604 $ 2,604
Teachers Advisors Inc 2016-09-30 226,888 Added More 34,370 $ 2,079 $ 13,728
Menta Capital Llc 2016-09-30 18,636 New Holding 18,636 $ 1,127 $ 1,127
Northern Trust Corp 2016-09-30 483,710 Added More 17,342 $ 1,049 $ 29,269
Moody Aldrich Partners Llc 2016-09-30 33,610 Added More 16,955 $ 1,025 $ 2,033
Zebra Capital Management Llc 2016-09-30 69,435 Added More 16,555 $ 1,001 $ 4,201
Raymond James Associates 2016-09-30 14,374 New Holding 14,374 $ 869 $ 869
Guggenheim Capital Llc 2016-09-30 14,023 New Holding 14,023 $ 848 $ 848
Nicholas Investment Partners Lp 2016-09-30 90,557 Added More 13,239 $ 801 $ 5,479
Squarepoint Ops Llc 2016-09-30 11,403 New Holding 11,403 $ 689 $ 689
Capital Fund Management S A 2016-09-30 48,126 Added More 11,026 $ 667 $ 2,912
Kcg Holdings Inc 2016-09-30 10,763 New Holding 10,763 $ 651 $ 651
Highbridge Capital Management Llc 2016-09-30 8,290 New Holding 8,290 $ 501 $ 501
Piedmont Investment Advisors Llc 2016-09-30 8,072 Added More 8,000 $ 484 $ 488
Secor Capital Advisors Lp 2016-09-30 7,383 New Holding 7,383 $ 446 $ 446
Phocas Financial Corp 2016-09-30 96,589 Added More 5,899 $ 356 $ 5,844
Fny Managed Accounts Llc 2016-09-30 4,850 New Holding 4,850 $ 293 $ 293
Princeton Alpha Management Lp 2016-09-30 4,820 New Holding 4,820 $ 291 $ 291
Cantab Capital Partners Llp 2016-09-30 4,351 New Holding 4,351 $ 263 $ 263
Strs Ohio 2016-09-30 18,400 Added More 3,800 $ 229 $ 1,113
Sg Americas Securities Llc 2016-09-30 2,988 New Holding 2,988 $ 180 $ 180
Quantbot Technologies Lp 2016-09-30 4,055 Added More 2,749 $ 166 $ 245
New York State Common Retirement Fund 2016-09-30 41,120 Added More 2,562 $ 155 $ 2,488
Prudential Plc 2016-09-30 105,734 Added More 1,899 $ 114 $ 6,397
Gsa Capital Partners Llp 2016-09-30 15,759 Added More 1,657 $ 100 $ 953
Peak6 Investments L P 2016-09-30 20,600 Added More 1,500 $ 90 $ 1,246
Aperio Group Llc 2016-09-30 7,738 Added More 1,028 $ 62 $ 468
Fdx Advisors Inc 2016-09-30 14,184 Added More 925 $ 55 $ 858
Elite Wealth Management Llc 2016-09-30 816 New Holding 816 $ 49 $ 49
Chicago Equity Partners Llc 2016-09-30 5,210 Added More 790 $ 47 $ 315
Ladenburg Thalmann Financial Services Inc 2016-09-30 3,876 Added More 600 $ 36 $ 234
Rhumbline Advisers 2016-09-30 31,495 Added More 570 $ 34 $ 1,905
First Republic Investment Management Inc 2016-09-30 7,424 Added More 524 $ 31 $ 449
California State Teachers Retirement System 2016-09-30 57,167 Added More 500 $ 30 $ 3,459
Springbok Capital Management Llc 2016-09-30 600 Added More 500 $ 30 $ 36
Martin Co Inc Tn 2016-09-30 21,390 Added More 375 $ 22 $ 1,294
Pacer Advisors Inc 2016-09-30 3,388 Added More 288 $ 17 $ 205
Baldwin Brothers Inc Ma 2016-09-30 156 New Holding 156 $ 9 $ 9
Zurcher Kantonalbank Zurich Cantonalbank 2016-09-30 1,082 Added More 110 $ 6 $ 65
Us Bancorp De 2016-09-30 2,485 Added More 85 $ 5 $ 150
Advisor Group Inc 2016-09-30 3,082 Added More 76 $ 4 $ 186
Ftb Advisors Inc 2016-09-30 75 New Holding 75 $ 4 $ 4
Apriem Advisors 2016-09-30 68 New Holding 68 $ 4 $ 4
Blackrock Inc 2016-09-30 2,106 Added More 64 $ 3 $ 127
Eqis Capital Management Inc 2016-09-30 4,060 Added More 57 $ 3 $ 245
Newsquare Capital Llc 2016-09-30 49 New Holding 49 $ 2 $ 2
Tower Research Capital Llc Trc 2016-09-30 46 New Holding 46 $ 2 $ 2
Global X Management Co Llc 2016-09-30 736 Added More 38 $ 2 $ 44
American International Group Inc 2016-09-30 15,553 Added More 23 $ 1 $ 941
Intrust Bank Na 2016-09-30 3,885 Added More 22 $ 1 $ 235
Proficio Capital Partners Llc 2016-09-30 18 New Holding 18 $ 1 $ 1
Ifp Advisors Inc 2016-09-30 226 Added More 8 $ 0 $ 13
Massmutual Trust Co Fsb Adv 2016-06-30 0 New Holding 0 $ 0 $ 0
Cypress Wealth Advisors Llc 2016-09-30 3,834 No Change 0 $ 0 $ 231
Baird Financial Group Inc 2016-09-30 6,041 No Change 0 $ 0 $ 365
Farmers Merchants Investments Inc 2016-09-30 114 No Change 0 $ 0 $ 6
High Point Bank Trust Co 2016-09-30 201 No Change 0 $ 0 $ 12
Northwestern Mutual Wealth Management Co 2016-09-30 70 No Change 0 $ 0 $ 4
Moody National Bank Trust Division 2016-09-30 9,226 No Change 0 $ 0 $ 558
Ledyard National Bank 2016-09-30 164 No Change 0 $ 0 $ 9
Physicians Financial Services Inc 2016-09-30 1,400 No Change 0 $ 0 $ 84
American National Insurance Co Tx 2016-09-30 80,200 No Change 0 $ 0 $ 4,852
Jacobs Levy Equity Management Inc 2016-09-30 6,390 No Change 0 $ 0 $ 386
Panagora Asset Management Inc 2016-09-30 2,000 No Change 0 $ 0 $ 121
First Midwest Bank Trust Division 2016-09-30 17,049 No Change 0 $ 0 $ 1,031
Thompson Rubinstein Investment Management Inc Or 2016-09-30 6,716 No Change 0 $ 0 $ 406
City Holding Co 2016-09-30 54 No Change 0 $ 0 $ 3
Robecosam Ag 2016-09-30 41,866 No Change 0 $ 0 $ 2,533
Central Trust Co 2016-09-30 947 No Change 0 $ 0 $ 57
American National Registered Investment Advisor Inc 2016-09-30 9,296 No Change 0 $ 0 $ 562
Finemark National Bank Trust 2016-09-30 40 No Change 0 $ 0 $ 2
Pdt Partners Llc 2016-09-30 49,500 No Change 0 $ 0 $ 2,995
Cable Hill Partners Llc 2016-09-30 100 No Change 0 $ 0 $ 6
Bronfman E L Rothschild L P 2016-09-30 6 No Change 0 $ 0 $ 0
Brown Brothers Harriman Co 2016-09-30 188 No Change 0 $ 0 $ 11
Meeder Asset Management Inc 2016-09-30 0 Sold All -2 $ -0 $ 0
Qci Asset Management Inc Ny 2016-09-30 250 Sold Some -100 $ -6 $ 15
Msi Financial Services Inc 2016-09-30 194 Sold Some -100 $ -6 $ 11
Hl Financial Services Llc 2016-09-30 4,140 Sold Some -123 $ -7 $ 250
Johnson Financial Group Inc 2016-09-30 1,093 Sold Some -125 $ -7 $ 66
Horizon Kinetics Llc 2016-09-30 7,124 Sold Some -139 $ -8 $ 431
Creative Planning 2016-09-30 2,753 Sold Some -149 $ -9 $ 166
Pitcairn Co 2016-09-30 4,052 Sold Some -169 $ -10 $ 245
Qs Investors Llc 2016-09-30 51,658 Sold Some -242 $ -14 $ 3,125
Fifth Third Bancorp 2016-09-30 11,473 Sold Some -248 $ -15 $ 694
Segall Bryant Hamill Llc 2016-09-30 60,677 Sold Some -420 $ -25 $ 3,671
Swiss National Bank 2016-09-30 45,100 Sold Some -500 $ -30 $ 2,729
Legal General Group Plc 2016-09-30 5,927 Sold Some -682 $ -41 $ 358
Pnc Financial Services Group Inc 2016-09-30 2,334 Sold Some -701 $ -42 $ 141
Stifel Financial Corp 2016-09-30 3,867 Sold Some -906 $ -54 $ 233
Nationwide Fund Advisors 2016-09-30 92,388 Sold Some -1,100 $ -66 $ 5,590
Beddow Capital Management Inc 2016-09-30 99,095 Sold Some -1,640 $ -99 $ 5,996
First Mercantile Trust Co 2016-09-30 7,357 Sold Some -1,643 $ -99 $ 445
Cubist Systematic Strategies Llc 2016-09-30 3,818 Sold Some -1,646 $ -99 $ 231
Blackrock Investment Management Llc 2016-09-30 98,820 Sold Some -1,805 $ -109 $ 5,979
Marshall Wace Llp 2016-09-30 7,187 Sold Some -1,818 $ -110 $ 434
Cutler Group Lp 2016-09-30 1,193 Sold Some -2,800 $ -169 $ 72
Dana Investment Advisors Inc 2016-09-30 37,546 Sold Some -2,836 $ -171 $ 2,271
Ironbridge Capital Management Lp 2016-09-30 95,827 Sold Some -3,053 $ -184 $ 5,798
Fiera Capital Corp 2016-09-30 105,603 Sold Some -3,223 $ -195 $ 6,390
Bluemountain Capital Management Llc 2016-09-30 0 Sold All -3,487 $ -210 $ 0
Bb T Corp 2016-09-30 0 Sold All -3,607 $ -218 $ 0
Envestnet Asset Management Inc 2016-09-30 6,745 Sold Some -3,703 $ -224 $ 408
Teacher Retirement System Of Texas 2016-09-30 0 Sold All -3,929 $ -237 $ 0
Jane Street Group Llc 2016-09-30 0 Sold All -4,400 $ -266 $ 0
Fox Run Management L L C 2016-09-30 0 Sold All -6,300 $ -381 $ 0
Alambic Investment Management L P 2016-09-30 0 Sold All -7,500 $ -453 $ 0
Fuller Thaler Asset Management Inc 2016-09-30 1,088,410 Sold Some -9,705 $ -587 $ 65,859
A R T Advisors Llc 2016-09-30 0 Sold All -10,651 $ -644 $ 0
Tfs Capital Llc 2016-09-30 0 Sold All -11,906 $ -720 $ 0
Sei Investments Co 2016-09-30 80,414 Sold Some -12,477 $ -754 $ 4,865
Zacks Investment Management 2016-09-30 30,198 Sold Some -16,912 $ -1,023 $ 1,827
Landscape Capital Management L L C 2016-09-30 0 Sold All -16,927 $ -1,024 $ 0
Parametric Portfolio Associates Llc 2016-09-30 124,645 Sold Some -18,044 $ -1,091 $ 7,542
Dynamic Capital Management Ltd 2016-09-30 0 Sold All -22,976 $ -1,390 $ 0
Royce Associates Lp 2016-09-30 833,884 Sold Some -24,000 $ -1,452 $ 50,458
Walleye Trading Llc 2016-09-30 3,000 Sold Some -25,453 $ -1,540 $ 181
Trimtabs Asset Management Llc 2016-09-30 440 Sold Some -26,527 $ -1,605 $ 26
Twin Capital Management Inc 2016-09-30 0 Sold All -26,967 $ -1,631 $ 0
Shellback Capital Lp 2016-09-30 0 Sold All -28,123 $ -1,701 $ 0
Tygh Capital Management Inc 2016-09-30 52,233 Sold Some -28,866 $ -1,746 $ 3,160
Stevens Capital Management Lp 2016-09-30 0 Sold All -34,064 $ -2,061 $ 0
Cupps Capital Management Llc 2016-09-30 0 Sold All -35,710 $ -2,160 $ 0
Silvercrest Asset Management Group Llc 2016-09-30 705,951 Sold Some -52,445 $ -3,173 $ 42,717
Century Capital Management Llc 2016-09-30 0 Sold All -53,696 $ -3,249 $ 0
King Luther Capital Management Corp 2016-09-30 188,945 Sold Some -62,817 $ -3,801 $ 11,433
Grantham Mayo Van Otterloo Co Llc 2016-09-30 6,600 Sold Some -68,575 $ -4,149 $ 399
Samlyn Capital Llc 2016-09-30 0 Sold All -72,870 $ -4,409 $ 0
Dimensional Fund Advisors Lp 2016-09-30 716,588 Sold Some -76,067 $ -4,602 $ 43,360
Friess Associates Llc 2016-09-30 87,859 Sold Some -78,862 $ -4,771 $ 5,316
Timessquare Capital Management Llc 2016-09-30 623,800 Sold Some -82,350 $ -4,982 $ 37,746
Columbus Circle Investors 2016-09-30 286,278 Sold Some -88,834 $ -5,375 $ 17,322
Gotham Asset Management Llc 2016-09-30 0 Sold All -148,416 $ -8,980 $ 0
Lord Abbett Co Llc 2016-09-30 0 Sold All -274,018 $ -16,580 $ 0